Time;durP1;ratioP1;P1;durP2;ratioP2;P2;SDS_P1;SDS_P2;PMS_P1;PMS_P2;Temp;Humidity;BMP_temperature;BMP_pressure;BME280_temperature;BME280_humidity;BME280_pressure;Samples;Min_cycle;Max_cycle;Signal;HPM_P1;HPM_P2
2021/03/19 00:01:01;;;;;;;22.10;12.15;;;;;;;0.30;80.64;96189.91;5051906;28;20045;-70
2021/03/19 00:03:27;;;;;;;20.90;10.73;;;;;;;0.25;80.63;96185.31;5045649;28;20037;-69
2021/03/19 00:05:53;;;;;;;25.88;12.35;;;;;;;0.25;80.72;96188.78;5031639;28;20168;-69
2021/03/19 00:08:19;;;;;;;20.05;11.05;;;;;;;0.25;80.70;96188.78;5030663;28;20584;-69
2021/03/19 00:10:45;;;;;;;24.25;12.00;;;;;;;0.23;80.82;96193.63;5031116;28;20124;-69
2021/03/19 00:13:11;;;;;;;21.70;10.98;;;;;;;0.21;80.79;96193.06;5031461;28;20444;-69
2021/03/19 00:15:39;;;;;;;23.30;12.10;;;;;;;0.19;80.95;96197.84;5032359;28;20042;-69
2021/03/19 00:18:07;;;;;;;22.38;11.80;;;;;;;0.15;81.15;96193.28;5031204;28;20076;-69
2021/03/19 00:20:36;;;;;;;25.20;13.25;;;;;;;0.14;81.36;96187.09;5051028;28;20040;-69
2021/03/19 00:23:02;;;;;;;23.27;12.38;;;;;;;0.15;81.32;96186.03;5055033;28;20053;-69
2021/03/19 00:25:28;;;;;;;24.65;11.88;;;;;;;0.16;81.43;96186.88;5052114;28;20052;-69
2021/03/19 00:27:54;;;;;;;23.15;11.80;;;;;;;0.20;81.33;96186.09;5050901;28;20056;-69
2021/03/19 00:30:23;;;;;;;22.70;11.52;;;;;;;0.20;81.16;96183.41;5051968;28;20048;-69
2021/03/19 00:32:49;;;;;;;21.33;11.35;;;;;;;0.22;81.00;96188.53;5051308;28;20129;-69
2021/03/19 00:35:16;;;;;;;25.58;11.77;;;;;;;0.22;80.87;96183.97;5051145;28;20045;-69
2021/03/19 00:37:43;;;;;;;23.90;12.23;;;;;;;0.24;81.00;96181.84;5051552;28;20072;-69
2021/03/19 00:40:11;;;;;;;26.05;12.63;;;;;;;0.25;81.04;96183.44;5050980;28;20052;-69
2021/03/19 00:42:38;;;;;;;23.50;11.80;;;;;;;0.29;80.99;96175.72;5051715;28;20048;-69
2021/03/19 00:45:06;;;;;;;24.02;11.95;;;;;;;0.32;80.99;96174.41;5050595;28;20053;-69
2021/03/19 00:47:32;;;;;;;24.13;12.05;;;;;;;0.32;80.73;96183.25;5051868;28;20048;-69
2021/03/19 00:49:59;;;;;;;22.45;12.20;;;;;;;0.23;81.12;96174.88;5054471;28;20040;-68
2021/03/19 00:52:26;;;;;;;24.67;12.55;;;;;;;0.13;81.63;96177.47;5060696;28;20459;-69
2021/03/19 00:54:52;;;;;;;24.05;12.18;;;;;;;0.24;81.35;96179.16;5050829;28;20045;-68
2021/03/19 00:57:18;;;;;;;24.17;13.05;;;;;;;0.28;81.46;96167.94;5050828;28;20503;-69
2021/03/19 00:59:44;;;;;;;24.50;13.18;;;;;;;0.31;81.53;96172.78;5051116;28;20049;-69
2021/03/19 01:02:10;;;;;;;23.48;12.68;;;;;;;0.31;81.64;96170.09;5050919;28;20045;-69
2021/03/19 01:04:36;;;;;;;27.13;13.55;;;;;;;0.32;81.68;96166.38;5050841;28;20040;-69
2021/03/19 01:07:02;;;;;;;25.05;13.35;;;;;;;0.36;81.61;96170.94;5050264;28;20048;-69
2021/03/19 01:09:29;;;;;;;26.02;13.68;;;;;;;0.43;81.59;96162.69;5051116;28;20501;-69
2021/03/19 01:11:55;;;;;;;25.95;13.85;;;;;;;0.41;81.67;96167.47;5050336;28;20060;-69
2021/03/19 01:14:21;;;;;;;25.27;13.30;;;;;;;0.48;81.60;96168.09;5051147;28;20131;-68
2021/03/19 01:16:47;;;;;;;27.90;14.43;;;;;;;0.44;81.84;96170.47;5050023;28;20557;-68
2021/03/19 01:19:13;;;;;;;25.38;14.10;;;;;;;0.37;81.90;96161.06;5050841;28;20090;-68
2021/03/19 01:21:39;;;;;;;28.80;14.43;;;;;;;0.41;82.30;96167.47;5063469;28;20400;-68
2021/03/19 01:24:06;;;;;;;28.90;15.00;;;;;;;0.48;82.10;96163.53;5050582;28;20503;-69
2021/03/19 01:26:33;;;;;;;29.95;14.60;;;;;;;0.46;82.20;96157.59;5050646;28;20037;-68
2021/03/19 01:28:59;;;;;;;29.45;14.20;;;;;;;0.56;81.97;96156.88;5050365;28;20056;-69
2021/03/19 01:31:25;;;;;;;28.20;14.48;;;;;;;0.55;81.94;96155.25;5050389;28;20061;-68
2021/03/19 01:33:51;;;;;;;25.88;14.07;;;;;;;0.62;81.75;96155.00;5050079;28;20075;-69
2021/03/19 01:36:17;;;;;;;28.35;14.70;;;;;;;0.70;81.61;96141.94;5050689;28;20055;-69
2021/03/19 01:38:43;;;;;;;27.08;14.65;;;;;;;0.68;81.49;96156.66;5050080;28;20063;-68
2021/03/19 01:41:11;;;;;;;26.90;14.85;;;;;;;0.63;81.42;96149.41;5050721;28;20049;-68
2021/03/19 01:43:39;;;;;;;27.17;14.90;;;;;;;0.58;81.72;96144.03;5049761;28;20102;-68
2021/03/19 01:46:42;;;;;;;29.80;15.05;;;;;;;0.59;81.68;96147.53;5050113;28;20102;-69
2021/03/19 01:49:46;;;;;;;26.90;14.68;;;;;;;0.65;81.55;96146.47;5050379;28;20052;-69
2021/03/19 01:52:49;;;;;;;23.25;12.18;;;;;;;0.58;81.70;96138.69;5038392;28;20044;-68
2021/03/19 01:55:53;;;;;;;31.67;15.75;;;;;;;0.55;81.67;96144.53;5049799;28;20049;-68
2021/03/19 01:58:56;;;;;;;28.02;14.48;;;;;;;0.41;82.01;96143.38;5049965;28;20052;-68
2021/03/19 02:02:00;;;;;;;29.23;15.57;;;;;;;0.43;82.23;96147.44;5049163;28;20041;-68
2021/03/19 02:05:03;;;;;;;27.00;15.18;;;;;;;0.40;82.18;96147.13;5049982;28;20272;-68
2021/03/19 02:08:07;;;;;;;31.42;16.33;;;;;;;0.35;82.50;96144.41;5050537;28;20637;-68
2021/03/19 02:11:10;;;;;;;23.20;13.13;;;;;;;0.33;82.60;96138.53;5050095;28;20048;-68
2021/03/19 02:14:13;;;;;;;22.38;11.82;;;;;;;0.32;82.65;96139.59;5049533;28;20033;-68
2021/03/19 02:17:16;;;;;;;31.13;15.97;;;;;;;0.18;83.17;96144.56;5050689;28;20045;-68
2021/03/19 02:20:19;;;;;;;24.60;11.60;;;;;;;0.32;82.89;96137.72;5053736;28;20124;-68
2021/03/19 02:23:23;;;;;;;29.95;15.15;;;;;;;0.40;82.61;96147.13;5053875;28;20049;-68
2021/03/19 02:26:26;;;;;;;30.50;15.77;;;;;;;0.37;82.27;96143.09;5054534;28;20045;-68
2021/03/19 02:29:29;;;;;;;26.20;14.15;;;;;;;0.36;82.26;96148.69;5053625;28;20036;-68
2021/03/19 02:32:07;;;;;;;27.03;14.57;;;;;;;0.42;81.87;96153.84;5053168;28;20049;-68
2021/03/19 02:34:40;;;;;;;27.05;14.77;;;;;;;0.48;81.78;96141.28;5054402;28;20033;-68
2021/03/19 02:37:09;;;;;;;21.55;11.68;;;;;;;0.53;81.27;96141.31;5053073;28;20404;-68
2021/03/19 02:39:35;;;;;;;29.90;14.60;;;;;;;0.56;81.12;96146.16;5054170;28;20457;-69
2021/03/19 02:42:01;;;;;;;26.40;14.80;;;;;;;0.57;81.23;96147.75;5053521;28;20044;-69
2021/03/19 02:44:27;;;;;;;27.67;15.18;;;;;;;0.64;80.73;96143.00;5053541;28;20072;-66
2021/03/19 02:46:53;;;;;;;28.88;15.13;;;;;;;0.67;80.54;96147.81;5053734;28;20037;-67
2021/03/19 02:49:20;;;;;;;30.40;15.93;;;;;;;0.63;80.65;96143.25;5052564;28;20111;-67
2021/03/19 02:51:46;;;;;;;32.10;15.73;;;;;;;0.63;80.65;96140.56;5052574;28;20488;-67
2021/03/19 02:54:12;;;;;;;30.60;16.00;;;;;;;0.67;80.56;96137.09;5052530;28;20132;-68
2021/03/19 02:56:38;;;;;;;32.53;16.75;;;;;;;0.64;80.52;96137.63;5054012;28;20067;-67
2021/03/19 02:59:04;;;;;;;31.13;16.25;;;;;;;0.65;80.36;96136.56;5052201;28;20049;-67
2021/03/19 03:01:30;;;;;;;29.77;15.35;;;;;;;0.66;80.40;96140.84;5053852;28;20044;-67
2021/03/19 03:03:56;;;;;;;30.10;15.27;;;;;;;0.63;80.14;96141.38;5053317;28;20048;-67
2021/03/19 03:06:35;;;;;;;31.05;16.27;;;;;;;0.66;80.31;96138.16;5052925;28;20455;-67
2021/03/19 03:09:01;;;;;;;29.50;15.45;;;;;;;0.64;80.22;96134.94;5053221;28;20451;-67
2021/03/19 03:11:27;;;;;;;27.58;15.38;;;;;;;0.69;80.19;96129.63;5053322;28;20048;-67
2021/03/19 03:13:53;;;;;;;31.00;16.23;;;;;;;0.74;80.24;96131.53;5053688;28;20118;-67
2021/03/19 03:16:21;;;;;;;29.60;15.85;;;;;;;0.76;79.64;96130.19;5051817;28;20129;-67
2021/03/19 03:18:47;;;;;;;30.75;16.10;;;;;;;0.74;79.90;96135.00;5053912;28;20099;-67
2021/03/19 03:21:13;;;;;;;28.52;16.40;;;;;;;0.78;79.75;96133.41;5051978;28;20044;-66
2021/03/19 03:23:40;;;;;;;28.25;15.93;;;;;;;0.83;79.63;96126.44;5053617;28;20044;-66
2021/03/19 03:26:06;;;;;;;27.75;15.55;;;;;;;0.79;79.74;96128.88;5052229;28;20049;-67
2021/03/19 03:28:32;;;;;;;29.52;15.50;;;;;;;0.82;79.69;96127.53;5052517;28;20044;-67
2021/03/19 03:30:59;;;;;;;27.42;16.45;;;;;;;0.81;79.65;96128.59;5052640;28;20637;-67
2021/03/19 03:33:25;;;;;;;30.73;15.40;;;;;;;0.82;79.56;96122.16;5052142;28;20041;-67
2021/03/19 03:35:52;;;;;;;29.70;15.38;;;;;;;0.78;79.69;96124.53;5052839;28;20048;-67
2021/03/19 03:38:22;;;;;;;29.42;16.38;;;;;;;0.82;79.65;96119.47;5051917;28;20048;-67
2021/03/19 03:40:53;;;;;;;29.83;15.85;;;;;;;0.78;79.92;96122.69;5053499;28;20041;-67
2021/03/19 03:43:20;;;;;;;33.45;16.90;;;;;;;0.76;79.83;96119.47;5051670;28;20060;-67
2021/03/19 03:45:46;;;;;;;29.63;15.82;;;;;;;0.80;79.80;96118.94;5052981;28;20048;-67
2021/03/19 03:48:14;;;;;;;29.85;15.55;;;;;;;0.82;79.91;96124.84;5051563;28;20458;-67
2021/03/19 03:50:41;;;;;;;32.70;17.05;;;;;;;0.82;79.83;96122.97;5049888;28;20519;-67
2021/03/19 03:53:09;;;;;;;29.90;17.30;;;;;;;0.85;80.00;96117.09;5052106;28;20052;-67
2021/03/19 03:55:35;;;;;;;30.52;16.33;;;;;;;0.88;80.14;96123.78;5052301;28;20041;-67
2021/03/19 03:58:03;;;;;;;33.72;17.50;;;;;;;0.88;80.06;96121.91;5052000;28;20041;-68
2021/03/19 04:00:30;;;;;;;32.45;16.45;;;;;;;0.91;80.27;96120.59;5051810;28;20056;-67
2021/03/19 04:02:58;;;;;;;32.83;17.70;;;;;;;0.94;80.35;96125.41;5053072;28;20045;-67
2021/03/19 04:05:27;;;;;;;33.67;17.98;;;;;;;0.94;80.35;96122.72;5051201;28;20047;-67
2021/03/19 04:07:53;;;;;;;36.67;18.33;;;;;;;1.01;80.30;96126.00;5052733;28;20041;-66
2021/03/19 04:10:20;;;;;;;34.47;18.35;;;;;;;1.06;80.29;96117.16;5051318;28;20045;-67
2021/03/19 04:12:47;;;;;;;38.42;19.60;;;;;;;1.07;80.07;96121.47;5052250;28;20558;-67
2021/03/19 04:15:15;;;;;;;36.95;18.45;;;;;;;1.02;80.12;96119.56;5051320;28;20045;-67
2021/03/19 04:17:43;;;;;;;37.78;18.33;;;;;;;1.06;79.96;96120.66;5051919;28;20044;-67
2021/03/19 04:20:10;;;;;;;36.80;19.27;;;;;;;1.09;79.83;96114.75;5051652;28;20408;-67
2021/03/19 04:22:37;;;;;;;37.10;18.15;;;;;;;1.14;79.84;96117.44;5051608;28;20048;-67
2021/03/19 04:25:04;;;;;;;35.25;18.40;;;;;;;1.16;79.79;96120.69;5052170;28;20411;-67
2021/03/19 04:27:33;;;;;;;35.08;19.35;;;;;;;1.17;79.75;96113.44;5050651;28;20052;-67
2021/03/19 04:29:59;;;;;;;34.78;18.75;;;;;;;1.16;79.72;96123.38;5052401;28;20049;-67
2021/03/19 04:32:26;;;;;;;36.22;18.98;;;;;;;1.17;79.66;96127.66;5050553;28;20454;-67
2021/03/19 04:34:52;;;;;;;35.85;18.45;;;;;;;1.15;79.74;96126.28;5052333;28;20045;-67
2021/03/19 04:37:18;;;;;;;35.85;18.95;;;;;;;1.17;79.50;96124.19;5051957;28;20500;-67
2021/03/19 04:39:47;;;;;;;34.38;19.50;;;;;;;1.21;79.12;96126.06;5050920;28;20048;-67
2021/03/19 04:42:14;;;;;;;34.72;18.98;;;;;;;1.09;78.97;96125.47;5050988;28;20567;-67
2021/03/19 04:44:43;;;;;;;37.88;19.45;;;;;;;1.10;78.83;96118.22;5051169;28;20102;-67
2021/03/19 04:47:09;;;;;;;34.33;18.33;;;;;;;1.10;78.99;96132.47;5051366;28;20045;-67
2021/03/19 04:49:37;;;;;;;33.78;18.65;;;;;;;1.08;78.96;96126.56;5050490;28;20045;-67
2021/03/19 04:52:04;;;;;;;37.65;18.50;;;;;;;1.05;79.05;96137.81;5051761;28;20124;-67
2021/03/19 04:54:31;;;;;;;37.63;18.88;;;;;;;1.01;79.31;96131.38;5050444;28;20563;-66
2021/03/19 04:56:57;;;;;;;35.00;18.05;;;;;;;1.04;79.34;96133.50;5051482;28;20412;-67
2021/03/19 04:59:24;;;;;;;35.40;18.02;;;;;;;1.02;79.31;96130.28;5050327;28;20041;-67
2021/03/19 05:01:51;;;;;;;36.97;19.65;;;;;;;1.01;78.96;96128.69;5051343;28;20124;-67
2021/03/19 05:04:21;;;;;;;35.78;18.55;;;;;;;0.93;79.31;96134.53;5050657;28;20041;-67
2021/03/19 05:06:48;;;;;;;38.67;19.27;;;;;;;0.92;79.53;96125.69;5050565;28;20048;-67
2021/03/19 05:09:14;;;;;;;37.38;19.55;;;;;;;0.97;79.68;96132.94;5051192;28;20052;-67
2021/03/19 05:11:40;;;;;;;41.50;19.85;;;;;;;1.02;79.64;96138.34;5050329;28;20052;-67
2021/03/19 05:14:06;;;;;;;40.72;20.05;;;;;;;1.04;79.40;96137.00;5051091;28;20045;-67
2021/03/19 05:16:32;;;;;;;37.60;19.10;;;;;;;1.07;79.70;96133.00;5049976;28;20041;-67
2021/03/19 05:18:58;;;;;;;36.33;18.65;;;;;;;1.08;79.73;96137.28;5051186;28;20045;-67
2021/03/19 05:21:24;;;;;;;39.33;20.33;;;;;;;1.14;79.78;96138.91;5049973;28;20045;-67
2021/03/19 05:23:51;;;;;;;39.20;19.23;;;;;;;1.19;79.71;96138.13;5051072;28;20047;-66
2021/03/19 05:26:17;;;;;;;40.63;20.83;;;;;;;1.23;79.38;96136.53;5049929;28;20053;-66
2021/03/19 05:28:43;;;;;;;41.97;20.27;;;;;;;1.26;79.31;96142.19;5050536;28;20051;-66
2021/03/19 05:31:09;;;;;;;42.03;20.08;;;;;;;1.26;78.97;96150.22;5050093;28;20082;-67
2021/03/19 05:33:45;;;;;;;39.50;19.45;;;;;;;1.27;78.91;96146.47;5050225;28;20045;-66
2021/03/19 05:36:13;;;;;;;39.35;19.52;;;;;;;1.24;79.15;96146.19;5050485;28;20056;-67
2021/03/19 05:38:39;;;;;;;40.05;20.67;;;;;;;1.25;79.17;96143.25;5049850;28;20041;-67
2021/03/19 05:41:08;;;;;;;38.58;20.05;;;;;;;1.30;79.21;96151.31;5050800;28;20773;-67
2021/03/19 05:43:37;;;;;;;40.75;20.63;;;;;;;1.34;79.28;96156.94;5049971;28;20053;-67
2021/03/19 05:46:07;;;;;;;37.95;19.08;;;;;;;1.38;78.96;96151.88;5050314;28;20045;-67
2021/03/19 05:48:44;;;;;;;40.42;20.70;;;;;;;1.29;78.33;96154.25;5049976;28;20037;-67
2021/03/19 05:51:22;;;;;;;37.83;19.63;;;;;;;1.27;78.09;96153.72;5049568;28;20052;-67
2021/03/19 05:53:54;;;;;;;37.17;19.48;;;;;;;1.24;78.19;96159.59;5030614;28;20045;-67
2021/03/19 05:56:26;;;;;;;39.20;20.73;;;;;;;1.25;78.50;96162.03;5029184;28;20056;-69
2021/03/19 05:58:52;;;;;;;41.53;19.88;;;;;;;1.26;78.69;96166.31;5048576;28;20540;-66
2021/03/19 06:01:18;;;;;;;38.85;20.58;;;;;;;1.26;78.62;96163.63;5049019;28;20053;-67
2021/03/19 06:03:45;;;;;;;40.13;20.00;;;;;;;1.24;78.65;96163.06;5050510;28;20044;-67
2021/03/19 06:06:12;;;;;;;38.85;20.15;;;;;;;1.18;78.57;96164.13;5050189;28;20051;-66
2021/03/19 06:08:42;;;;;;;43.00;21.02;;;;;;;1.16;78.95;96166.28;5049985;28;20045;-68
2021/03/19 06:11:16;;;;;;;38.20;19.73;;;;;;;1.17;79.22;96167.88;5049782;28;20045;-67
2021/03/19 06:13:46;;;;;;;41.05;20.98;;;;;;;1.16;79.08;96166.28;5049283;28;20048;-67
2021/03/19 06:16:34;;;;;;;39.10;20.35;;;;;;;1.12;79.15;96170.56;5050145;28;20048;-67
2021/03/19 06:19:03;;;;;;;42.65;20.55;;;;;;;1.06;79.17;96165.44;5049147;28;20055;-67
2021/03/19 06:21:32;;;;;;;41.60;21.33;;;;;;;0.99;79.53;96168.34;5050341;28;20708;-67
2021/03/19 06:24:22;;;;;;;42.60;20.45;;;;;;;0.99;80.00;96171.03;5049339;28;20664;-67
2021/03/19 06:26:49;;;;;;;45.88;20.90;;;;;;;0.95;80.04;96175.31;5043317;28;20037;-67
2021/03/19 06:29:24;;;;;;;43.33;20.77;;;;;;;0.93;80.30;96178.22;5029532;28;20083;-67
2021/03/19 06:32:14;;;;;;;42.15;21.20;;;;;;;0.93;80.33;96172.06;5030049;28;20045;-68
2021/03/19 06:34:59;;;;;;;43.47;21.10;;;;;;;0.94;80.37;96173.69;5030060;28;20069;-67
2021/03/19 06:37:32;;;;;;;43.30;22.98;;;;;;;0.92;80.28;96181.19;5029254;28;20046;-67
2021/03/19 06:40:00;;;;;;;41.28;22.02;;;;;;;0.86;80.65;96179.56;5029710;28;20053;-67
2021/03/19 06:42:33;;;;;;;46.55;22.52;;;;;;;0.75;80.77;96176.81;5029964;28;20500;-67
2021/03/19 06:45:18;;;;;;;35.65;16.08;;;;;;;0.78;81.15;96170.94;5029162;28;20412;-67
2021/03/19 06:47:47;;;;;;;49.33;22.35;;;;;;;0.82;80.98;96179.25;5030416;28;20037;-67
2021/03/19 06:50:32;;;;;;;49.15;21.50;;;;;;;0.88;81.18;96174.72;5018721;28;20508;-67
2021/03/19 06:53:16;;;;;;;43.63;21.70;;;;;;;0.85;80.56;96180.63;5045100;28;20049;-67
2021/03/19 06:55:44;;;;;;;;;;;;;;;0.70;81.08;96182.16;5050253;28;20037;-67
2021/03/19 06:58:10;;;;;;;46.72;21.52;;;;;;;0.71;81.17;96181.06;5048546;28;19927;-67
2021/03/19 07:00:40;;;;;;;43.20;21.75;;;;;;;0.76;81.29;96182.97;5050057;28;20614;-69
2021/03/19 07:03:21;;;;;;;51.53;22.45;;;;;;;0.69;81.52;96180.53;5049231;28;20045;-68
2021/03/19 07:05:59;;;;;;;49.30;22.92;;;;;;;0.66;81.64;96178.34;5053697;28;20064;-67
2021/03/19 07:08:40;;;;;;;50.65;23.70;;;;;;;0.77;81.77;96184.59;5052556;28;20488;-67
2021/03/19 07:11:30;;;;;;;51.40;23.52;;;;;;;0.82;81.91;96187.28;5052834;28;20127;-67
2021/03/19 07:14:09;;;;;;;47.72;22.00;;;;;;;0.85;81.66;96186.78;5053797;28;20175;-67
2021/03/19 07:16:51;;;;;;;46.88;21.65;;;;;;;0.91;81.45;96184.94;5052218;28;20067;-67
2021/03/19 07:19:23;;;;;;;44.97;21.98;;;;;;;0.87;81.02;96181.16;5052852;28;20075;-67
2021/03/19 07:22:24;;;;;;;47.90;21.50;;;;;;;0.83;81.29;96188.09;5052853;28;20053;-79
2021/03/19 07:25:10;;;;;;;43.40;21.23;;;;;;;0.87;81.06;96183.84;5046932;28;20041;-78
2021/03/19 07:27:49;;;;;;;44.22;21.15;;;;;;;0.93;80.92;96193.50;5053015;28;20041;-73
2021/03/19 07:30:24;;;;;;;45.00;20.95;;;;;;;0.92;80.88;96191.91;5051729;28;20049;-72
2021/03/19 07:33:19;;;;;;;43.28;21.17;;;;;;;0.92;80.79;96197.28;5052624;28;20050;-72
2021/03/19 07:36:01;;;;;;;45.20;21.45;;;;;;;1.01;80.88;96190.34;5052459;28;20094;-72
2021/03/19 07:39:02;;;;;;;42.35;20.35;;;;;;;1.00;80.47;96194.09;5050033;28;20064;-72
2021/03/19 07:41:42;;;;;;;41.17;18.80;;;;;;;0.92;80.61;96202.63;5052162;28;20049;-75
2021/03/19 07:44:23;;;;;;;40.08;19.70;;;;;;;0.91;81.04;96195.66;5051348;28;20044;-73
2021/03/19 07:47:01;;;;;;;40.75;18.98;;;;;;;0.87;80.71;96202.59;5051591;28;20041;-73
2021/03/19 07:49:54;;;;;;;42.38;19.70;;;;;;;0.93;80.56;96199.69;5057336;28;20056;-73
2021/03/19 07:52:42;;;;;;;39.05;20.13;;;;;;;0.99;80.74;96203.19;5061421;28;20045;-73
2021/03/19 07:55:18;;;;;;;40.20;19.80;;;;;;;1.01;80.28;96195.72;5052056;28;20041;-73
2021/03/19 07:57:52;;;;;;;40.80;20.05;;;;;;;0.95;80.25;96204.81;5052009;28;20439;-73
2021/03/19 08:00:21;;;;;;;39.72;19.33;;;;;;;1.09;80.74;96200.56;5051297;28;20037;-73
2021/03/19 08:02:55;;;;;;;42.67;21.08;;;;;;;1.26;80.76;96203.88;5052476;28;20041;-74
2021/03/19 08:05:26;;;;;;;40.67;18.88;;;;;;;1.30;80.54;96204.97;5051035;28;20103;-73
2021/03/19 08:08:02;;;;;;;44.75;20.38;;;;;;;1.29;80.23;96203.34;5052504;28;20033;-73
2021/03/19 08:10:32;;;;;;;40.83;19.63;;;;;;;1.34;80.12;96209.78;5051667;28;20099;-73
2021/03/19 08:13:09;;;;;;;40.25;18.83;;;;;;;1.38;80.03;96213.56;5051975;28;20052;-73
2021/03/19 08:15:41;;;;;;;36.50;18.38;;;;;;;1.32;80.18;96214.63;5050541;28;20041;-73
2021/03/19 08:18:16;;;;;;;36.28;18.77;;;;;;;1.23;80.16;96209.75;5050995;28;20059;-74
2021/03/19 08:20:53;;;;;;;38.28;19.13;;;;;;;1.12;80.00;96208.09;5068099;28;20066;-74
2021/03/19 08:23:31;;;;;;;41.38;19.80;;;;;;;1.11;80.58;96206.50;5052715;28;20201;-74
2021/03/19 08:25:57;;;;;;;42.35;20.10;;;;;;;1.20;80.99;96210.28;5052211;28;20052;-73
2021/03/19 08:28:33;;;;;;;42.10;20.13;;;;;;;1.27;80.90;96221.56;5050725;28;20106;-74
2021/03/19 08:31:05;;;;;;;39.42;19.25;;;;;;;1.21;80.63;96217.25;5051434;28;20049;-74
2021/03/19 08:33:53;;;;;;;50.25;21.52;;;;;;;1.24;81.07;96222.09;5051637;28;20049;-74
2021/03/19 08:36:29;;;;;;;40.85;20.65;;;;;;;1.28;80.79;96228.56;5050428;28;20049;-75
2021/03/19 08:39:02;;;;;;;37.47;18.55;;;;;;;1.25;80.83;96229.09;5052007;28;20056;-75
2021/03/19 08:41:31;;;;;;;47.25;21.35;;;;;;;1.36;80.75;96232.63;5050889;28;20041;-76
2021/03/19 08:44:01;;;;;;;42.55;20.50;;;;;;;1.63;80.78;96235.13;5051438;28;20491;-75
2021/03/19 08:46:35;;;;;;;37.72;20.00;;;;;;;1.65;79.91;96241.03;5051159;28;20116;-75
2021/03/19 08:49:05;;;;;;;39.83;19.83;;;;;;;1.75;79.74;96238.38;5052408;28;20048;-75
2021/03/19 08:51:43;;;;;;;41.90;20.30;;;;;;;1.85;79.98;96242.16;5067736;28;20412;-75
2021/03/19 08:54:26;;;;;;;38.28;20.20;;;;;;;1.90;79.95;96234.94;5049476;28;20049;-75
2021/03/19 08:56:53;;;;;;;38.05;19.02;;;;;;;1.77;78.69;96236.22;5051382;28;20045;-73
2021/03/19 08:59:49;;;;;;;37.67;18.63;;;;;;;1.74;78.70;96247.50;5049861;28;20048;-74
2021/03/19 09:02:44;;;;;;;33.03;15.57;;;;;;;1.87;78.59;96234.63;5050361;28;20045;-74
2021/03/19 09:05:30;;;;;;;38.83;20.10;;;;;;;2.00;78.65;96239.50;5050566;28;20261;-73
2021/03/19 09:08:19;;;;;;;35.75;18.95;;;;;;;2.26;78.45;96243.84;5049904;28;20052;-73
2021/03/19 09:11:15;;;;;;;34.15;18.35;;;;;;;2.45;77.08;96251.34;5050665;28;20040;-73
2021/03/19 09:14:21;;;;;;;35.72;16.98;;;;;;;2.45;75.95;96248.66;5050610;28;20033;-74
2021/03/19 09:16:55;;;;;;;32.47;16.45;;;;;;;2.33;75.60;96249.75;5049802;28;20691;-73
2021/03/19 09:19:43;;;;;;;30.58;16.45;;;;;;;2.22;75.89;96242.75;5055095;28;20051;-73
2021/03/19 09:22:31;;;;;;;31.52;17.08;;;;;;;2.24;76.13;96239.78;5061700;28;20056;-73
2021/03/19 09:25:36;;;;;;;31.08;16.35;;;;;;;2.22;76.23;96248.13;5049532;28;20060;-74
2021/03/19 09:28:17;;;;;;;40.47;20.48;;;;;;;2.24;76.29;96245.16;5050083;28;20443;-73
2021/03/19 09:30:47;;;;;;;34.10;18.15;;;;;;;2.18;76.08;96243.56;5050318;28;20057;-74
2021/03/19 09:33:53;;;;;;;37.30;18.75;;;;;;;2.17;77.35;96244.63;5050067;28;20067;-74
2021/03/19 09:36:57;;;;;;;37.42;18.65;;;;;;;2.12;76.60;96245.44;5050040;28;20068;-74
2021/03/19 09:40:00;;;;;;;34.40;18.52;;;;;;;2.13;76.20;96244.34;5049384;28;20045;-74
2021/03/19 09:42:47;;;;;;;36.67;19.25;;;;;;;2.02;76.47;96250.78;5049822;28;20047;-74
2021/03/19 09:45:47;;;;;;;36.15;19.13;;;;;;;1.76;77.01;96260.66;5050098;28;20056;-74
2021/03/19 09:48:24;;;;;;;37.60;19.08;;;;;;;1.71;78.10;96242.66;4987501;28;20074;-74
2021/03/19 09:50:54;;;;;;;37.05;19.35;;;;;;;1.66;78.78;96239.16;5057587;28;20036;-76
2021/03/19 09:53:28;;;;;;;34.72;19.00;;;;;;;1.59;78.70;96244.78;5051602;28;20052;-73
2021/03/19 09:55:56;;;;;;;35.92;19.65;;;;;;;1.48;79.16;96243.13;5049648;28;20041;-73
2021/03/19 09:58:28;;;;;;;40.45;19.35;;;;;;;1.39;79.86;96244.69;5050057;28;20045;-74
2021/03/19 10:00:59;;;;;;;40.80;21.13;;;;;;;1.35;80.33;96248.97;5049190;28;20045;-74
2021/03/19 10:03:25;;;;;;;39.67;20.55;;;;;;;1.30;80.52;96247.88;5049679;28;20048;-76
2021/03/19 10:05:51;;;;;;;40.13;19.83;;;;;;;1.27;80.77;96252.97;5049492;28;20044;-74
2021/03/19 10:08:26;;;;;;;43.38;21.25;;;;;;;1.24;80.98;96254.28;5050255;28;20045;-74
2021/03/19 10:11:03;;;;;;;45.83;21.85;;;;;;;1.23;81.31;96257.22;5050300;28;20488;-74
2021/03/19 10:13:29;;;;;;;40.95;20.33;;;;;;;1.22;81.43;96256.44;5049088;28;20041;-75
2021/03/19 10:15:57;;;;;;;42.47;21.27;;;;;;;1.20;81.94;96255.88;5050427;28;20049;-73
2021/03/19 10:18:27;;;;;;;42.15;21.17;;;;;;;1.20;82.10;96253.22;5049105;28;20041;-74
2021/03/19 10:20:56;;;;;;;42.45;21.35;;;;;;;1.21;82.28;96254.81;5067878;28;20037;-74
2021/03/19 10:23:28;;;;;;;48.00;22.27;;;;;;;1.23;82.58;96252.66;5050178;28;20370;-74
2021/03/19 10:26:06;;;;;;;45.80;21.08;;;;;;;1.27;83.10;96251.09;5050431;28;20128;-74
2021/03/19 10:28:33;;;;;;;50.90;24.05;;;;;;;1.35;83.35;96243.59;5049296;28;20037;-74
2021/03/19 10:31:02;;;;;;;44.03;22.05;;;;;;;1.42;83.29;96249.53;5049876;28;20072;-74
2021/03/19 10:33:36;;;;;;;41.60;21.25;;;;;;;1.43;83.25;96256.53;5049433;28;20052;-74
2021/03/19 10:36:06;;;;;;;41.67;21.15;;;;;;;1.44;83.19;96250.88;5048642;28;20615;-74
2021/03/19 10:38:38;;;;;;;42.33;21.95;;;;;;;1.44;83.30;96250.88;5051991;28;20077;-75
2021/03/19 10:41:12;;;;;;;46.05;22.42;;;;;;;1.49;83.45;96250.09;5052763;28;20078;-75
2021/03/19 10:43:48;;;;;;;30.55;16.63;;;;;;;1.49;82.37;96244.72;5054105;28;20049;-74
2021/03/19 10:46:20;;;;;;;29.13;15.25;;;;;;;1.52;81.93;96249.59;5053052;28;20107;-75
2021/03/19 10:48:51;;;;;;;26.95;15.10;;;;;;;1.60;81.90;96249.06;5053303;28;20094;-74
2021/03/19 10:51:35;;;;;;;32.72;17.38;;;;;;;1.68;81.17;96243.19;5034933;28;20408;-74
2021/03/19 10:54:12;;;;;;;33.50;17.55;;;;;;;1.79;81.18;96252.88;5052289;28;20124;-72
2021/03/19 10:56:45;;;;;;;31.75;17.60;;;;;;;1.90;80.79;96252.91;5054336;28;20053;-74
2021/03/19 10:59:14;;;;;;;33.00;17.52;;;;;;;2.08;80.74;96247.03;5032475;28;20145;-74
2021/03/19 11:01:44;;;;;;;32.95;17.55;;;;;;;2.30;80.86;96249.50;5033275;28;20404;-74
2021/03/19 11:04:33;;;;;;;30.17;17.05;;;;;;;2.54;81.18;96253.25;5032691;28;20046;-75
2021/03/19 11:07:00;;;;;;;31.15;16.85;;;;;;;2.73;80.30;96250.81;5034045;28;20049;-75
2021/03/19 11:09:28;;;;;;;30.58;17.30;;;;;;;2.90;79.32;96247.03;5048310;28;20045;-75
2021/03/19 11:11:56;;;;;;;27.77;16.17;;;;;;;3.09;79.42;96250.78;5049058;28;20142;-74
2021/03/19 11:14:26;;;;;;;26.23;15.70;;;;;;;3.26;77.84;96253.94;5050208;28;20127;-74
2021/03/19 11:16:56;;;;;;;23.38;12.80;;;;;;;3.30;74.06;96251.53;5048991;28;20052;-73
2021/03/19 11:19:24;;;;;;;28.45;15.15;;;;;;;3.49;75.12;96243.63;5054428;28;20051;-73
2021/03/19 11:21:59;;;;;;;25.65;15.35;;;;;;;3.72;77.00;96243.00;5063884;28;20045;-73
2021/03/19 11:24:33;;;;;;;22.65;13.43;;;;;;;3.80;71.17;96245.13;5049639;28;20474;-75
2021/03/19 11:27:19;;;;;;;24.65;14.50;;;;;;;4.08;73.56;96235.53;5049887;28;20048;-73
2021/03/19 11:29:46;;;;;;;20.02;12.20;;;;;;;4.20;69.38;96237.88;5048984;28;20040;-75
2021/03/19 11:32:33;;;;;;;23.25;13.95;;;;;;;4.44;71.15;96238.78;5052745;28;20054;-72
2021/03/19 11:35:16;;;;;;;21.65;13.77;;;;;;;4.74;74.11;96239.63;5052535;28;20091;-73
2021/03/19 11:37:45;;;;;;;20.73;13.02;;;;;;;5.02;72.05;96229.94;5052592;28;20115;-73
2021/03/19 11:40:29;;;;;;;13.13;8.38;;;;;;;4.96;71.04;96234.56;5052345;28;20045;-73
2021/03/19 11:42:59;;;;;;;13.00;8.70;;;;;;;4.68;71.29;96233.47;5052046;28;20053;-73
2021/03/19 11:45:27;;;;;;;11.82;7.57;;;;;;;4.48;70.06;96227.44;5052593;28;20037;-73
2021/03/19 11:48:07;;;;;;;11.75;7.75;;;;;;;4.34;72.71;96225.41;5052023;28;20044;-73
2021/03/19 11:50:37;;;;;;;12.23;8.05;;;;;;;4.28;72.14;96229.22;5067185;28;20037;-73
2021/03/19 11:53:07;;;;;;;13.88;9.63;;;;;;;4.23;73.28;96229.25;5055265;28;20095;-73
2021/03/19 11:55:36;;;;;;;13.27;8.88;;;;;;;4.40;73.06;96226.16;5052281;28;20067;-73
2021/03/19 11:58:03;;;;;;;16.48;10.65;;;;;;;4.69;73.93;96218.06;5052279;28;20048;-74